createdAt,value
2023-02-19T00:01:45.532Z,6.16
2023-02-19T00:06:48.528Z,6.14
2023-02-19T00:11:54.757Z,6.13
2023-02-19T00:16:59.492Z,6.11
2023-02-19T00:22:01.151Z,6.09
2023-02-19T00:27:03.011Z,6.12
2023-02-19T00:32:05.221Z,6.16
2023-02-19T00:37:08.455Z,6.23
2023-02-19T00:42:10.106Z,6.22
2023-02-19T00:47:11.913Z,6.17
2023-02-19T00:52:14.372Z,6.13
2023-02-19T00:57:16.273Z,6.11
2023-02-19T01:02:17.987Z,6.07
2023-02-19T01:07:19.749Z,6.04
2023-02-19T01:12:21.505Z,6.02
2023-02-19T01:17:23.353Z,5.99
2023-02-19T01:22:25.076Z,5.96
2023-02-19T01:27:26.934Z,5.98
2023-02-19T01:32:28.689Z,5.97
2023-02-19T01:37:30.518Z,5.95
2023-02-19T01:42:32.246Z,5.92
2023-02-19T01:47:34.147Z,5.92
2023-02-19T01:52:37.009Z,5.95
2023-02-19T01:57:43.633Z,5.99
2023-02-19T02:02:51.100Z,5.95
2023-02-19T02:08:11.670Z,5.91
2023-02-19T02:13:13.433Z,5.89
2023-02-19T02:18:41.594Z,5.88
2023-02-19T02:24:06.688Z,5.85
2023-02-19T02:29:29.834Z,5.81
2023-02-19T02:34:42.584Z,5.78
2023-02-19T02:39:46.927Z,5.82
2023-02-19T02:45:07.303Z,5.87
2023-02-19T02:50:25.086Z,5.86
2023-02-19T02:55:31.838Z,5.87
2023-02-19T03:00:54.876Z,5.88
2023-02-19T03:06:05.073Z,5.92
2023-02-19T03:11:31.123Z,5.92
2023-02-19T03:16:56.459Z,5.94
2023-02-19T03:22:10.251Z,6.00
2023-02-19T03:27:14.490Z,6.04
2023-02-19T03:32:39.291Z,6.06
2023-02-19T03:37:47.072Z,6.08
2023-02-19T03:43:10.031Z,6.10
2023-02-19T03:48:19.668Z,6.11
2023-02-19T03:53:54.691Z,6.05
2023-02-19T03:59:11.249Z,6.02
2023-02-19T04:04:13.185Z,6.00
2023-02-19T04:09:17.458Z,5.98
2023-02-19T04:14:28.918Z,5.97
2023-02-19T04:19:34.329Z,5.96
2023-02-19T04:24:43.229Z,5.97
2023-02-19T04:29:45.105Z,6.00
2023-02-19T04:34:46.851Z,6.02
2023-02-19T04:39:48.567Z,6.03
2023-02-19T04:44:50.374Z,6.04
2023-02-19T04:49:52.357Z,6.06
2023-02-19T04:54:54.133Z,6.06
2023-02-19T04:59:55.802Z,6.04
2023-02-19T05:04:57.537Z,6.06
2023-02-19T05:09:59.860Z,6.08
2023-02-19T05:15:01.584Z,6.09
2023-02-19T05:20:04.073Z,6.09
2023-02-19T05:25:06.127Z,6.11
2023-02-19T05:30:08.602Z,6.16
2023-02-19T05:35:10.307Z,6.17
2023-02-19T05:40:12.028Z,6.19
2023-02-19T05:45:13.729Z,6.21
2023-02-19T05:50:15.523Z,6.22
2023-02-19T05:55:17.374Z,6.21
2023-02-19T06:00:19.942Z,6.20
2023-02-19T06:05:21.753Z,6.17
2023-02-19T06:10:23.572Z,6.21
2023-02-19T06:15:25.280Z,6.40
2023-02-19T06:20:27.358Z,6.57
2023-02-19T06:25:29.149Z,6.55
2023-02-19T06:30:30.892Z,6.49
2023-02-19T06:35:32.812Z,6.42
2023-02-19T06:40:34.475Z,6.40
2023-02-19T06:45:36.133Z,6.41
2023-02-19T06:50:38.123Z,6.42
2023-02-19T06:55:40.451Z,6.40
2023-02-19T07:00:42.161Z,6.42
2023-02-19T07:05:43.936Z,6.45
2023-02-19T07:10:45.961Z,6.46
2023-02-19T07:15:48.900Z,6.53
2023-02-19T07:20:51.968Z,6.60
2023-02-19T07:25:53.805Z,6.67
2023-02-19T07:31:01.816Z,6.72
2023-02-19T07:36:03.761Z,6.77
2023-02-19T07:41:06.892Z,6.83
2023-02-19T07:46:11.986Z,6.95
2023-02-19T07:51:18.802Z,7.10
2023-02-19T07:56:20.989Z,7.21
2023-02-19T08:01:42.580Z,7.24
2023-02-19T08:06:44.336Z,7.25
2023-02-19T08:12:04.715Z,7.31
2023-02-19T08:17:06.395Z,7.35
2023-02-19T08:22:08.293Z,7.48
2023-02-19T08:27:10.211Z,7.58
2023-02-19T08:32:12.277Z,7.61
2023-02-19T08:37:14.064Z,7.56
2023-02-19T08:42:15.711Z,7.48
2023-02-19T08:47:17.387Z,7.45
2023-02-19T08:52:19.067Z,7.41
2023-02-19T08:57:20.776Z,7.33
2023-02-19T09:02:23.536Z,7.25
2023-02-19T09:07:25.256Z,7.20
2023-02-19T09:12:27.282Z,7.16
2023-02-19T09:17:28.951Z,7.13
2023-02-19T09:22:30.678Z,7.07
2023-02-19T09:27:33.245Z,7.00
2023-02-19T09:32:34.909Z,6.93
2023-02-19T09:37:36.568Z,6.70
2023-02-19T09:42:42.252Z,6.57
2023-02-19T09:47:43.962Z,6.46
2023-02-19T09:52:53.679Z,6.40
2023-02-19T09:57:57.997Z,6.35
2023-02-19T10:03:05.997Z,6.26
2023-02-19T10:08:14.871Z,6.24
2023-02-19T10:13:42.843Z,6.23
2023-02-19T10:18:46.614Z,6.16
2023-02-19T10:23:53.703Z,6.18
2023-02-19T10:28:55.644Z,6.14
2023-02-19T10:34:00.353Z,5.83
2023-02-19T10:39:22.751Z,5.64
2023-02-19T10:44:28.076Z,5.57
2023-02-19T10:49:34.154Z,5.60
2023-02-19T10:54:36.239Z,5.50
2023-02-19T10:59:37.966Z,5.49
2023-02-19T11:04:39.628Z,5.80
2023-02-19T11:09:49.413Z,5.97
2023-02-19T11:14:51.489Z,6.04
2023-02-19T11:20:17.773Z,5.93
2023-02-19T11:25:25.577Z,5.74
2023-02-19T11:30:30.323Z,5.57
2023-02-19T11:35:32.160Z,5.44
2023-02-19T11:40:46.114Z,5.42
2023-02-19T11:46:18.724Z,5.47
2023-02-19T11:51:30.327Z,5.35
2023-02-19T11:56:37.195Z,5.11
2023-02-19T12:02:03.907Z,5.04
2023-02-19T12:07:30.550Z,5.01
2023-02-19T12:12:32.284Z,4.96
2023-02-19T12:17:59.034Z,4.93
2023-02-19T12:23:24.635Z,4.77
2023-02-19T12:28:49.029Z,4.57
2023-02-19T12:34:10.410Z,4.27
2023-02-19T12:39:49.689Z,4.14
2023-02-19T12:44:56.305Z,3.98
2023-02-19T12:50:13.481Z,3.81
2023-02-19T12:55:26.223Z,3.70
2023-02-19T13:00:51.717Z,3.58
2023-02-19T13:06:07.128Z,3.48
2023-02-19T13:11:36.792Z,3.62
2023-02-19T13:16:42.433Z,3.84
2023-02-19T13:22:10.111Z,3.93
2023-02-19T13:27:36.219Z,3.80
2023-02-19T13:32:59.900Z,3.76
2023-02-19T13:38:03.795Z,3.62
2023-02-19T13:43:22.384Z,3.55
2023-02-19T13:48:24.149Z,3.52
2023-02-19T13:53:50.428Z,3.50
2023-02-19T13:58:54.501Z,3.35
2023-02-19T14:04:23.519Z,3.17
2023-02-19T14:09:34.160Z,3.04
2023-02-19T14:14:44.201Z,3.17
2023-02-19T14:19:50.043Z,3.28
2023-02-19T14:24:54.233Z,3.49
2023-02-19T14:29:56.460Z,3.66
2023-02-19T14:34:58.751Z,3.74
2023-02-19T14:40:01.249Z,3.72
2023-02-19T14:45:07.153Z,3.61
2023-02-19T14:50:20.360Z,3.49
2023-02-19T14:55:30.291Z,3.44
2023-02-19T15:00:37.763Z,3.35
2023-02-19T15:05:39.823Z,3.32
2023-02-19T15:10:43.384Z,3.29
2023-02-19T15:15:46.294Z,3.24
2023-02-19T15:20:49.147Z,3.23
2023-02-19T15:25:52.814Z,3.22
2023-02-19T15:30:57.224Z,3.20
2023-02-19T15:36:03.261Z,3.20
2023-02-19T15:41:05.281Z,3.16
2023-02-19T15:46:27.957Z,3.08
2023-02-19T15:51:43.444Z,3.01
2023-02-19T15:56:50.046Z,2.93
2023-02-19T16:01:52.345Z,2.86
2023-02-19T16:06:59.926Z,2.78
2023-02-19T16:12:03.229Z,2.66
2023-02-19T16:17:12.040Z,2.55
2023-02-19T16:22:18.758Z,2.44
2023-02-19T16:27:40.065Z,2.30
2023-02-19T16:32:42.000Z,2.22
2023-02-19T16:37:59.926Z,2.23
2023-02-19T16:43:26.342Z,2.26
2023-02-19T16:48:28.188Z,2.28
2023-02-19T16:53:29.920Z,2.35
2023-02-19T16:58:31.579Z,2.40
2023-02-19T17:03:33.317Z,2.43
2023-02-19T17:08:37.703Z,2.43
2023-02-19T17:13:40.767Z,2.35
2023-02-19T17:18:42.741Z,2.34
2023-02-19T17:23:44.525Z,2.37
2023-02-19T17:28:46.309Z,2.41
2023-02-19T17:33:48.227Z,2.43
2023-02-19T17:38:50.569Z,2.38
2023-02-19T17:43:52.547Z,2.35
2023-02-19T17:48:54.900Z,2.33
2023-02-19T17:53:57.431Z,2.28
2023-02-19T17:58:59.761Z,2.15
2023-02-19T18:04:01.497Z,1.88
2023-02-19T18:09:03.510Z,1.61
2023-02-19T18:14:05.465Z,1.39
2023-02-19T18:19:07.584Z,1.25
2023-02-19T18:24:10.984Z,1.10
2023-02-19T18:29:12.876Z,0.93
2023-02-19T18:34:18.678Z,0.74
2023-02-19T18:39:20.652Z,0.56
2023-02-19T18:44:24.046Z,0.47
2023-02-19T18:49:25.822Z,0.39
2023-02-19T18:54:28.977Z,0.32
2023-02-19T18:59:32.212Z,0.21
2023-02-19T19:04:43.364Z,0.08
2023-02-19T19:09:47.663Z,-0.14
2023-02-19T19:14:49.518Z,-0.04
2023-02-19T19:19:51.174Z,-0.09
2023-02-19T19:24:53.241Z,-0.16
2023-02-19T19:29:55.082Z,-0.20
2023-02-19T19:34:57.780Z,-0.20
2023-02-19T19:39:59.673Z,-0.14
2023-02-19T19:45:01.545Z,-0.10
2023-02-19T19:50:03.678Z,-0.08
2023-02-19T19:55:06.429Z,0.00
2023-02-19T20:00:09.479Z,0.10
2023-02-19T20:05:18.075Z,0.22
2023-02-19T20:10:20.651Z,0.30
2023-02-19T20:15:23.055Z,0.39
2023-02-19T20:20:24.870Z,0.51
2023-02-19T20:25:27.002Z,0.64
2023-02-19T20:30:28.832Z,0.74
2023-02-19T20:35:30.582Z,0.79
2023-02-19T20:40:32.772Z,0.85
2023-02-19T20:45:34.497Z,0.93
2023-02-19T20:50:36.212Z,0.99
2023-02-19T20:55:38.121Z,1.03
2023-02-19T21:00:40.132Z,0.98
2023-02-19T21:05:43.094Z,0.93
2023-02-19T21:10:46.127Z,0.91
2023-02-19T21:15:47.839Z,0.92
2023-02-19T21:20:49.614Z,0.90
2023-02-19T21:25:54.226Z,0.87
2023-02-19T21:30:56.357Z,0.86
2023-02-19T21:35:58.090Z,0.80
2023-02-19T21:40:59.814Z,0.74
2023-02-19T21:46:01.589Z,0.68
2023-02-19T21:51:03.881Z,0.66
2023-02-19T21:56:05.795Z,0.63
2023-02-19T22:01:07.499Z,0.60
2023-02-19T22:06:09.607Z,0.54
2023-02-19T22:11:11.654Z,0.44
2023-02-19T22:16:14.252Z,0.34
2023-02-19T22:21:16.684Z,0.12
2023-02-19T22:26:28.176Z,0.26
2023-02-19T22:31:32.876Z,0.22
2023-02-19T22:36:38.907Z,0.13
2023-02-19T22:41:43.952Z,0.06
2023-02-19T22:46:53.513Z,0.02
2023-02-19T22:52:00.534Z,-0.04
2023-02-19T22:57:02.329Z,-0.08
2023-02-19T23:02:04.003Z,-0.15
2023-02-19T23:07:06.688Z,-0.21
2023-02-19T23:12:11.180Z,-0.21
2023-02-19T23:17:12.946Z,-0.18
2023-02-19T23:22:14.578Z,-0.14
2023-02-19T23:27:16.446Z,-0.12
2023-02-19T23:32:20.938Z,-0.09
2023-02-19T23:37:22.634Z,-0.02
2023-02-19T23:42:24.360Z,0.06
2023-02-19T23:47:26.590Z,0.14
2023-02-19T23:52:28.236Z,0.18
2023-02-19T23:57:29.963Z,0.16
